Time,TemperatureF,DewpointF,PressureIn,WindDirection,WindDirectionDegrees,WindSpeedMPH,WindSpeedGustMPH,Humidity,HourlyPrecipIn,Conditions,Clouds,dailyrainin,SoftwareType,DateUTC
2013-10-25 00:03:00,36.0,32.0,30.25,WNW,294,1.0,4.0,86,0.00,,,0.00,,2013-10-25 04:03:00,
2013-10-25 00:14:00,36.0,31.0,30.25,NNW,334,0.0,1.0,82,0.00,,,0.00,,2013-10-25 04:14:00,
2013-10-25 00:24:00,36.0,32.0,30.25,WNW,294,1.0,4.0,86,0.00,,,0.00,,2013-10-25 04:24:00,
2013-10-25 00:34:00,36.0,32.0,30.25,WNW,294,1.0,4.0,86,0.00,,,0.00,,2013-10-25 04:34:00,
2013-10-25 00:44:00,36.0,32.0,30.25,WNW,294,1.0,4.0,86,0.00,,,0.00,,2013-10-25 04:44:00,
2013-10-25 00:54:00,36.0,32.0,30.25,WNW,294,1.0,4.0,86,0.00,,,0.00,,2013-10-25 04:54:00,
2013-10-25 08:51:00,28.0,26.0,30.35,West,261,0.0,0.0,93,0.00,,,0.00,,2013-10-25 12:51:00,
2013-10-25 09:11:00,29.0,27.0,30.35,West,261,0.0,0.0,94,0.00,,,0.00,,2013-10-25 13:11:00,
2013-10-25 09:21:00,30.0,28.0,30.35,West,261,0.0,1.0,94,0.00,,,0.00,,2013-10-25 13:21:00,
2013-10-25 09:41:00,32.0,30.0,30.36,West,259,0.0,2.0,93,0.00,,,0.00,,2013-10-25 13:41:00,
2013-10-25 09:52:00,34.0,31.0,30.37,WSW,256,0.0,2.0,90,0.00,,,0.00,,2013-10-25 13:52:00,
2013-10-25 10:11:00,36.0,33.0,30.37,WNW,284,0.0,2.0,88,0.00,,,0.00,,2013-10-25 14:11:00,
2013-10-25 10:22:00,38.0,34.0,30.37,NW,305,0.0,2.0,84,0.00,,,0.00,,2013-10-25 14:22:00,
2013-10-25 11:21:00,44.0,37.0,30.37,WNW,298,0.0,6.0,76,0.00,,,0.00,,2013-10-25 15:21:00,
2013-10-25 11:43:00,45.0,37.0,30.37,NW,307,1.0,8.0,72,0.00,,,0.00,,2013-10-25 15:43:00,
2013-10-25 11:53:00,46.0,36.0,30.38,West,275,1.0,5.0,69,0.00,,,0.00,,2013-10-25 15:53:00,
2013-10-25 12:13:00,46.0,36.0,30.37,NNW,336,1.0,6.0,68,0.00,,,0.00,,2013-10-25 16:13:00,
2013-10-25 12:23:00,46.0,35.0,30.37,West,263,0.0,8.0,66,0.00,,,0.00,,2013-10-25 16:23:00,
2013-10-25 12:43:00,45.0,34.0,30.37,NW,322,1.0,7.0,65,0.00,,,0.00,,2013-10-25 16:43:00,
2013-10-25 12:53:00,45.0,34.0,30.38,NNE,13,1.0,8.0,65,0.00,,,0.00,,2013-10-25 16:53:00,
2013-10-25 13:13:00,46.0,33.0,30.37,WNW,285,1.0,6.0,61,0.00,,,0.00,,2013-10-25 17:13:00,
2013-10-25 13:22:00,47.0,34.0,30.37,WSW,237,1.0,8.0,60,0.00,,,0.00,,2013-10-25 17:22:00,
2013-10-25 13:43:00,46.0,33.0,30.36,NW,325,0.0,7.0,61,0.00,,,0.00,,2013-10-25 17:43:00,
2013-10-25 13:52:00,47.0,33.0,30.35,West,277,1.0,6.0,58,0.00,,,0.00,,2013-10-25 17:52:00,
2013-10-25 14:12:00,47.0,32.0,30.34,WNW,300,1.0,4.0,56,0.00,,,0.00,,2013-10-25 18:12:00,
2013-10-25 14:21:00,47.0,29.0,30.34,WSW,250,1.0,7.0,50,0.00,,,0.00,,2013-10-25 18:21:00,
2013-10-25 14:42:00,47.0,32.0,30.33,NW,313,1.0,5.0,55,0.00,,,0.00,,2013-10-25 18:42:00,
2013-10-25 14:52:00,47.0,29.0,30.32,NW,306,1.0,6.0,50,0.00,,,0.00,,2013-10-25 18:52:00,
2013-10-25 15:11:00,47.0,31.0,30.32,WSW,248,1.0,6.0,54,0.00,,,0.00,,2013-10-25 19:11:00,
2013-10-25 15:22:00,48.0,31.0,30.31,North,360,1.0,6.0,52,0.00,,,0.00,,2013-10-25 19:22:00,
2013-10-25 15:42:00,49.0,30.0,30.31,WSW,238,3.0,6.0,48,0.00,,,0.00,,2013-10-25 19:42:00,
2013-10-25 15:52:00,49.0,30.0,30.31,WSW,238,3.0,6.0,48,0.00,,,0.00,,2013-10-25 19:52:00,
2013-10-25 16:12:00,48.0,29.0,30.30,North,355,0.0,6.0,48,0.00,,,0.00,,2013-10-25 20:12:00,
2013-10-25 16:22:00,47.0,29.0,30.30,NW,313,1.0,6.0,49,0.00,,,0.00,,2013-10-25 20:22:00,
2013-10-25 16:42:00,47.0,29.0,30.29,North,355,2.0,7.0,49,0.00,,,0.00,,2013-10-25 20:42:00,
2013-10-25 16:52:00,47.0,28.0,30.29,WSW,242,1.0,7.0,47,0.00,,,0.00,,2013-10-25 20:52:00,
2013-10-25 17:11:00,48.0,28.0,30.28,North,355,1.0,6.0,46,0.00,,,0.00,,2013-10-25 21:11:00,
2013-10-25 17:22:00,48.0,28.0,30.27,SW,232,3.0,7.0,46,0.00,,,0.00,,2013-10-25 21:22:00,
2013-10-25 17:43:00,49.0,29.0,30.27,WSW,252,0.0,5.0,46,0.00,,,0.00,,2013-10-25 21:43:00,
2013-10-25 17:54:00,49.0,29.0,30.27,West,270,1.0,4.0,46,0.00,,,0.00,,2013-10-25 21:54:00,
2013-10-25 18:13:00,48.0,28.0,30.26,SW,231,1.0,6.0,46,0.00,,,0.00,,2013-10-25 22:13:00,
2013-10-25 18:23:00,49.0,29.0,30.25,SW,221,2.0,6.0,46,0.00,,,0.00,,2013-10-25 22:23:00,
2013-10-25 18:42:00,48.0,29.0,30.24,WSW,238,1.0,6.0,48,0.00,,,0.00,,2013-10-25 22:42:00,
2013-10-25 18:52:00,47.0,30.0,30.24,SW,222,2.0,7.0,51,0.00,,,0.00,,2013-10-25 22:52:00,
2013-10-25 19:12:00,46.0,29.0,30.23,SW,229,2.0,5.0,52,0.00,,,0.00,,2013-10-25 23:12:00,
2013-10-25 19:22:00,45.0,30.0,30.23,SW,221,1.0,5.0,55,0.00,,,0.00,,2013-10-25 23:22:00,
2013-10-25 19:42:00,44.0,30.0,30.22,SW,222,0.0,3.0,57,0.00,,,0.00,,2013-10-25 23:42:00,
2013-10-25 19:52:00,43.0,29.0,30.22,SW,218,0.0,2.0,58,0.00,,,0.00,,2013-10-25 23:52:00,
2013-10-25 20:11:00,43.0,30.0,30.22,SSW,209,0.0,2.0,59,0.00,,,0.00,,2013-10-26 00:11:00,
2013-10-25 20:22:00,42.0,30.0,30.22,SSW,208,0.0,2.0,61,0.00,,,0.00,,2013-10-26 00:22:00,
2013-10-25 20:42:00,42.0,30.0,30.21,SSW,202,0.0,2.0,63,0.00,,,0.00,,2013-10-26 00:42:00,
2013-10-25 20:52:00,41.0,29.0,30.20,SSW,205,1.0,3.0,63,0.00,,,0.00,,2013-10-26 00:52:00,
2013-10-25 21:12:00,42.0,30.0,30.19,SSW,198,2.0,5.0,63,0.00,,,0.00,,2013-10-26 01:12:00,
2013-10-25 21:22:00,41.0,30.0,30.19,SSW,209,1.0,5.0,64,0.00,,,0.00,,2013-10-26 01:22:00,
2013-10-25 21:42:00,41.0,30.0,30.18,SW,218,1.0,5.0,65,0.00,,,0.00,,2013-10-26 01:42:00,
2013-10-25 21:52:00,41.0,30.0,30.18,SW,218,2.0,5.0,64,0.00,,,0.00,,2013-10-26 01:52:00,
2013-10-25 22:12:00,41.0,30.0,30.16,SSW,206,2.0,6.0,65,0.00,,,0.00,,2013-10-26 02:12:00,
2013-10-25 22:22:00,41.0,31.0,30.16,SW,229,2.0,6.0,66,0.00,,,0.00,,2013-10-26 02:22:00,
2013-10-25 22:43:00,40.0,30.0,30.16,SSW,213,1.0,7.0,67,0.00,,,0.00,,2013-10-26 02:43:00,
2013-10-25 22:52:00,40.0,30.0,30.15,South,173,2.0,5.0,67,0.00,,,0.00,,2013-10-26 02:52:00,
2013-10-25 23:12:00,40.0,30.0,30.15,SSW,211,2.0,6.0,67,0.00,,,0.00,,2013-10-26 03:12:00,
2013-10-25 23:22:00,40.0,30.0,30.14,SSW,202,3.0,6.0,67,0.00,,,0.00,,2013-10-26 03:22:00,
2013-10-25 23:44:00,40.0,30.0,30.14,SW,220,3.0,6.0,67,0.00,,,0.00,,2013-10-26 03:44:00,
2013-10-25 23:54:00,40.0,30.0,30.14,SW,221,2.0,7.0,67,0.00,,,0.00,,2013-10-26 03:54:00,